Time;durP1;ratioP1;P1;durP2;ratioP2;P2;SDS_P1;SDS_P2;PMS_P1;PMS_P2;Temp;Humidity;BMP_temperature;BMP_pressure;BME280_temperature;BME280_humidity;BME280_pressure;Samples;Min_cycle;Max_cycle;Signal;HPM_P1;HPM_P2
2020/12/13 00:01:18;;;;;;;87.47;58.90;;;;;;;7.17;100.00;93179.41;5071399;28;20780;-73
2020/12/13 00:03:44;;;;;;;86.17;54.73;;;;;;;7.21;100.00;93183.19;5071984;28;20431;-71
2020/12/13 00:06:10;;;;;;;94.70;57.53;;;;;;;7.08;100.00;93178.72;5071584;28;20809;-71
2020/12/13 00:08:37;;;;;;;68.83;53.83;;;;;;;6.99;100.00;93170.38;5072219;28;20433;-70
2020/12/13 00:11:04;;;;;;;71.60;52.13;;;;;;;6.99;100.00;93167.00;5072094;28;20452;-70
2020/12/13 00:13:30;;;;;;;67.23;51.90;;;;;;;6.88;100.00;93158.03;5071772;28;20989;-71
2020/12/13 00:15:57;;;;;;;81.03;53.40;;;;;;;7.01;100.00;93174.53;5072381;28;20429;-71
2020/12/13 00:18:24;;;;;;;84.03;52.50;;;;;;;6.85;100.00;93173.75;5071678;28;20490;-71
2020/12/13 00:20:50;;;;;;;77.43;52.10;;;;;;;6.94;100.00;93179.56;5071628;28;20464;-71
2020/12/13 00:23:16;;;;;;;83.67;54.50;;;;;;;6.92;100.00;93174.59;5071318;28;20819;-72
2020/12/13 00:25:43;;;;;;;76.43;55.03;;;;;;;6.94;100.00;93182.94;5071498;28;20499;-71
2020/12/13 00:28:10;;;;;;;89.57;54.90;;;;;;;6.93;100.00;93173.66;5071937;28;20431;-72
2020/12/13 00:30:37;;;;;;;85.67;56.00;;;;;;;7.01;100.00;93187.31;5071621;28;20441;-71
2020/12/13 00:33:04;;;;;;;91.27;57.20;;;;;;;7.01;100.00;93184.75;5071711;28;20523;-71
2020/12/13 00:35:31;;;;;;;84.50;55.67;;;;;;;6.82;100.00;93181.78;5071521;28;20437;-71
2020/12/13 00:37:57;;;;;;;83.80;55.47;;;;;;;6.84;100.00;93183.19;5071681;28;20463;-72
2020/12/13 00:40:23;;;;;;;79.87;55.20;;;;;;;6.90;100.00;93183.47;5071558;28;20456;-71
2020/12/13 00:42:50;;;;;;;73.03;54.80;;;;;;;6.72;100.00;93179.53;5071183;28;20430;-72
2020/12/13 00:45:16;;;;;;;71.47;54.53;;;;;;;6.73;100.00;93166.53;5071324;28;20456;-72
2020/12/13 00:47:44;;;;;;;75.77;56.57;;;;;;;6.62;100.00;93169.56;5071731;28;20435;-72
2020/12/13 00:50:11;;;;;;;76.47;54.63;;;;;;;6.84;100.00;93182.41;5071398;28;20436;-71
2020/12/13 00:52:40;;;;;;;68.20;54.53;;;;;;;6.95;100.00;93181.94;5071514;28;20451;-71
2020/12/13 00:55:06;;;;;;;74.63;51.67;;;;;;;6.97;100.00;93187.66;5071173;28;20433;-71
2020/12/13 00:57:32;;;;;;;83.70;53.10;;;;;;;6.98;100.00;93171.34;5071754;28;20460;-71
2020/12/13 00:59:59;;;;;;;76.70;53.33;;;;;;;7.01;100.00;93174.53;5072262;28;20444;-71
2020/12/13 01:02:25;;;;;;;73.00;53.20;;;;;;;7.04;100.00;93163.91;5074648;28;20822;-71
2020/12/13 01:04:53;;;;;;;78.73;50.63;;;;;;;6.88;100.00;93152.91;5075101;28;20435;-71
2020/12/13 01:07:20;;;;;;;81.17;53.00;;;;;;;6.97;100.00;93154.41;5075143;28;20488;-72
2020/12/13 01:09:46;;;;;;;74.47;50.03;;;;;;;7.01;100.00;93156.59;5075197;28;20453;-72
2020/12/13 01:12:12;;;;;;;59.53;52.53;;;;;;;7.12;100.00;93161.25;5074830;28;20440;-71
2020/12/13 01:14:39;;;;;;;74.93;53.87;;;;;;;7.02;100.00;93158.19;5075097;28;20523;-71
2020/12/13 01:17:07;;;;;;;74.23;51.63;;;;;;;6.73;100.00;93163.19;5074849;28;20435;-72
2020/12/13 01:19:34;;;;;;;69.20;52.77;;;;;;;6.85;100.00;93155.84;5074871;28;20478;-71
2020/12/13 01:22:00;;;;;;;72.73;52.07;;;;;;;6.95;100.00;93158.91;5074688;28;20421;-71
2020/12/13 01:24:28;;;;;;;63.53;49.50;;;;;;;6.96;100.00;93157.94;5074328;28;20457;-72
2020/12/13 01:26:54;;;;;;;68.67;50.20;;;;;;;6.98;100.00;93155.19;5074454;28;20453;-71
2020/12/13 01:29:20;;;;;;;65.90;48.47;;;;;;;6.97;100.00;93149.28;5075189;28;20425;-71
2020/12/13 01:31:47;;;;;;;66.23;47.67;;;;;;;7.01;100.00;93139.50;5074333;28;20427;-72
2020/12/13 01:34:13;;;;;;;61.67;48.10;;;;;;;7.04;100.00;93138.31;5074809;28;20819;-71
2020/12/13 01:36:40;;;;;;;69.83;46.30;;;;;;;7.09;100.00;93136.00;5075072;28;20451;-72
2020/12/13 01:39:09;;;;;;;60.30;47.27;;;;;;;7.13;100.00;93131.31;5074281;28;20465;-72
2020/12/13 01:41:36;;;;;;;58.80;48.30;;;;;;;7.14;100.00;93120.09;5074272;28;20449;-71
2020/12/13 01:44:04;;;;;;;63.07;47.77;;;;;;;7.10;100.00;93107.66;5075048;28;20429;-71
2020/12/13 01:46:31;;;;;;;60.63;47.33;;;;;;;7.03;100.00;93096.59;5074906;28;20444;-72
2020/12/13 01:49:02;;;;;;;58.10;45.40;;;;;;;6.99;100.00;93100.44;5074430;28;20425;-71
2020/12/13 01:51:42;;;;;;;53.67;44.00;;;;;;;6.84;100.00;93082.59;5074269;28;20435;-72
2020/12/13 01:54:12;;;;;;;66.33;47.77;;;;;;;6.83;100.00;93084.34;5074725;28;20432;-71
2020/12/13 01:56:43;;;;;;;77.47;46.97;;;;;;;6.85;100.00;93091.88;5074552;28;20425;-71
2020/12/13 01:59:11;;;;;;;58.67;45.63;;;;;;;6.90;100.00;93081.09;5074285;28;20650;-72
2020/12/13 02:01:39;;;;;;;63.63;46.50;;;;;;;6.87;100.00;93074.56;5074416;28;20468;-72
2020/12/13 02:04:08;;;;;;;63.93;47.17;;;;;;;6.86;100.00;93080.66;5073900;28;20428;-72
2020/12/13 02:06:36;;;;;;;55.73;46.43;;;;;;;6.81;100.00;93078.63;5073975;28;20441;-72
2020/12/13 02:09:03;;;;;;;68.67;46.60;;;;;;;6.85;100.00;93073.97;5073917;28;20842;-72
2020/12/13 02:11:31;;;;;;;55.80;47.27;;;;;;;6.90;100.00;93070.84;5074019;28;20451;-72
2020/12/13 02:13:59;;;;;;;61.80;47.83;;;;;;;6.92;100.00;93069.69;5073499;28;20449;-71
2020/12/13 02:16:26;;;;;;;62.77;48.87;;;;;;;6.95;100.00;93064.19;5073686;28;20448;-72
2020/12/13 02:18:52;;;;;;;69.47;50.77;;;;;;;6.98;100.00;93063.84;5073230;28;20875;-72
2020/12/13 02:21:18;;;;;;;57.90;47.33;;;;;;;6.98;100.00;93057.94;5073281;28;20436;-72
2020/12/13 02:23:46;;;;;;;70.50;48.60;;;;;;;7.01;100.00;93062.69;5073064;28;20429;-71
2020/12/13 02:26:14;;;;;;;73.20;51.30;;;;;;;7.00;100.00;93063.66;5072743;28;20484;-71
2020/12/13 02:28:41;;;;;;;60.03;47.90;;;;;;;6.96;100.00;93059.88;5073103;28;20428;-71
2020/12/13 02:31:08;;;;;;;71.57;48.23;;;;;;;6.93;100.00;93057.69;5073549;28;20435;-71
2020/12/13 02:33:36;;;;;;;62.47;49.50;;;;;;;6.93;100.00;93063.59;5073045;28;20445;-71
2020/12/13 02:36:03;;;;;;;58.80;46.80;;;;;;;6.91;100.00;93068.09;5072935;28;20440;-71
2020/12/13 02:38:31;;;;;;;69.73;46.20;;;;;;;6.97;100.00;93062.25;5073180;28;20471;-71
2020/12/13 02:40:58;;;;;;;72.17;50.87;;;;;;;6.95;100.00;93069.31;5073195;28;20428;-71
2020/12/13 02:43:25;;;;;;;62.37;47.07;;;;;;;6.95;100.00;93071.88;5072769;28;20445;-71
2020/12/13 02:45:51;;;;;;;61.73;47.27;;;;;;;6.92;100.00;93058.66;5073065;28;20430;-71
2020/12/13 02:48:17;;;;;;;59.63;47.20;;;;;;;6.96;100.00;93063.25;5073228;28;20436;-72
2020/12/13 02:50:44;;;;;;;63.67;46.53;;;;;;;6.97;100.00;93056.34;5073010;28;20443;-71
2020/12/13 02:53:11;;;;;;;69.97;47.47;;;;;;;6.88;100.00;93063.34;5072525;28;20437;-72
2020/12/13 02:55:37;;;;;;;57.10;46.57;;;;;;;6.85;100.00;93063.72;5072807;28;20440;-72
2020/12/13 02:58:04;;;;;;;66.33;47.63;;;;;;;6.80;100.00;93059.16;5073218;28;20906;-71
2020/12/13 03:00:31;;;;;;;67.23;48.80;;;;;;;6.67;100.00;93064.94;5072777;28;20429;-72
2020/12/13 03:02:57;;;;;;;59.27;45.47;;;;;;;6.48;100.00;93063.72;5072457;28;20534;-71
2020/12/13 03:05:24;;;;;;;63.97;45.97;;;;;;;6.45;100.00;93064.09;5072758;28;20425;-71
2020/12/13 03:07:50;;;;;;;56.23;46.87;;;;;;;6.52;100.00;93068.31;5072296;28;20431;-71
2020/12/13 03:10:16;;;;;;;61.20;47.57;;;;;;;6.45;100.00;93066.66;5072622;28;20462;-71
2020/12/13 03:12:43;;;;;;;63.40;46.50;;;;;;;6.51;100.00;93071.84;5072635;28;20443;-71
2020/12/13 03:15:10;;;;;;;57.73;46.70;;;;;;;6.49;100.00;93075.56;5072151;28;20441;-71
2020/12/13 03:17:37;;;;;;;61.80;46.87;;;;;;;6.42;100.00;93070.38;5072181;28;20433;-71
2020/12/13 03:20:03;;;;;;;66.03;48.23;;;;;;;6.46;100.00;93074.16;5072177;28;20440;-72
2020/12/13 03:22:30;;;;;;;64.50;48.07;;;;;;;6.48;100.00;93073.97;5071985;28;20437;-72
2020/12/13 03:24:56;;;;;;;58.40;48.63;;;;;;;6.45;100.00;93071.78;5071184;28;20487;-72
2020/12/13 03:27:24;;;;;;;72.67;49.80;;;;;;;6.47;100.00;93077.50;5072185;28;20437;-72
2020/12/13 03:29:51;;;;;;;62.13;49.13;;;;;;;6.45;100.00;93074.34;5072309;28;20546;-72
2020/12/13 03:32:20;;;;;;;69.33;48.40;;;;;;;6.43;100.00;93073.72;5072062;28;20439;-72
2020/12/13 03:34:47;;;;;;;69.30;51.43;;;;;;;6.28;100.00;93071.97;5072128;28;20444;-72
2020/12/13 03:37:13;;;;;;;73.13;51.33;;;;;;;6.26;100.00;93077.28;5072326;28;20452;-71
2020/12/13 03:39:40;;;;;;;73.80;51.90;;;;;;;6.30;100.00;93077.69;5072143;28;20467;-72
2020/12/13 03:42:06;;;;;;;64.27;49.33;;;;;;;6.29;100.00;93076.91;5072009;28;20455;-72
2020/12/13 03:44:33;;;;;;;67.80;49.50;;;;;;;6.30;100.00;93083.63;5072234;28;20433;-71
2020/12/13 03:46:59;;;;;;;66.40;49.27;;;;;;;6.27;100.00;93083.94;5071921;28;20949;-71
2020/12/13 03:49:27;;;;;;;62.60;49.27;;;;;;;6.22;100.00;93070.94;5072054;28;20630;-71
2020/12/13 03:51:53;;;;;;;66.17;47.87;;;;;;;6.27;100.00;93073.72;5071843;28;20439;-71
2020/12/13 03:54:19;;;;;;;54.67;46.30;;;;;;;6.10;100.00;93082.56;5071800;28;20934;-71
2020/12/13 03:56:46;;;;;;;78.10;49.73;;;;;;;5.95;100.00;93084.16;5071745;28;20448;-72
2020/12/13 03:59:12;;;;;;;72.10;50.57;;;;;;;6.09;100.00;93083.56;5072069;28;20833;-72
2020/12/13 04:01:39;;;;;;;71.20;49.30;;;;;;;6.14;100.00;93079.47;5072032;28;20433;-71
2020/12/13 04:04:05;;;;;;;75.47;50.83;;;;;;;6.15;100.00;93081.06;5071658;28;20444;-71
2020/12/13 04:06:33;;;;;;;63.33;48.20;;;;;;;5.98;100.00;93082.97;5072008;28;20459;-72
2020/12/13 04:08:59;;;;;;;71.90;49.00;;;;;;;5.98;100.00;93077.88;5071539;28;20431;-71
2020/12/13 04:11:25;;;;;;;57.07;47.13;;;;;;;6.13;100.00;93082.22;5072288;28;20792;-71
2020/12/13 04:13:58;;;;;;;75.53;47.03;;;;;;;6.16;100.00;93081.88;5071769;28;20910;-72
2020/12/13 04:16:31;;;;;;;66.50;48.37;;;;;;;6.18;100.00;93070.47;5071590;28;20447;-72
2020/12/13 04:18:58;;;;;;;61.60;46.00;;;;;;;6.05;100.00;93081.31;5071398;28;20468;-72
2020/12/13 04:21:25;;;;;;;58.13;45.97;;;;;;;6.12;100.00;93086.53;5071540;28;20437;-72
2020/12/13 04:23:53;;;;;;;65.23;45.57;;;;;;;6.18;100.00;93087.59;5071514;28;20816;-72
2020/12/13 04:26:19;;;;;;;58.70;42.80;;;;;;;6.29;100.00;93091.47;5071154;28;20498;-71
2020/12/13 04:28:46;;;;;;;63.97;44.30;;;;;;;6.22;100.00;93093.94;5071481;28;20443;-71
2020/12/13 04:31:13;;;;;;;55.17;42.63;;;;;;;6.05;100.00;93093.28;5071130;28;20431;-72
2020/12/13 04:33:39;;;;;;;54.30;40.93;;;;;;;6.02;100.00;93106.44;5071458;28;20448;-71
2020/12/13 04:36:06;;;;;;;56.23;40.27;;;;;;;6.11;100.00;93113.09;5074153;28;20447;-72
2020/12/13 04:38:32;;;;;;;48.37;39.17;;;;;;;6.11;100.00;93112.28;5075014;28;20467;-72
2020/12/13 04:41:00;;;;;;;53.97;40.07;;;;;;;6.15;100.00;93121.97;5075044;28;20448;-71
2020/12/13 04:43:27;;;;;;;48.73;39.90;;;;;;;6.18;100.00;93125.94;5075000;28;20527;-71
2020/12/13 04:45:54;;;;;;;55.20;40.73;;;;;;;6.34;100.00;93129.28;5075580;28;20436;-71
2020/12/13 04:48:23;;;;;;;48.97;37.50;;;;;;;6.41;100.00;93135.25;5074914;28;20444;-71
2020/12/13 04:50:51;;;;;;;49.57;37.80;;;;;;;6.45;100.00;93149.28;5074788;28;20429;-72
2020/12/13 04:53:19;;;;;;;45.20;37.43;;;;;;;6.40;100.00;93137.03;5075124;28;20443;-71
2020/12/13 04:55:54;;;;;;;50.97;38.07;;;;;;;5.98;100.00;93140.97;5075120;28;20936;-71
2020/12/13 04:58:22;;;;;;;55.17;41.80;;;;;;;5.78;100.00;93144.81;5074689;28;20464;-72
2020/12/13 05:00:54;;;;;;;55.60;38.27;;;;;;;5.73;100.00;93152.22;5074692;28;20836;-71
2020/12/13 05:03:21;;;;;;;48.27;38.67;;;;;;;5.92;100.00;93165.47;5074731;28;20474;-72
2020/12/13 05:05:48;;;;;;;53.13;39.80;;;;;;;6.15;100.00;93172.31;5074654;28;20433;-71
2020/12/13 05:08:15;;;;;;;47.60;37.97;;;;;;;6.27;100.00;93173.44;5075089;28;20436;-72
2020/12/13 05:10:41;;;;;;;57.17;40.43;;;;;;;6.35;100.00;93171.78;5074714;28;20463;-72
2020/12/13 05:13:08;;;;;;;51.83;37.23;;;;;;;6.40;100.00;93187.41;5074368;28;20451;-72
2020/12/13 05:15:37;;;;;;;61.40;40.70;;;;;;;6.11;100.00;93181.28;5074399;28;20443;-72
2020/12/13 05:18:03;;;;;;;58.03;39.33;;;;;;;6.23;100.00;93174.75;5074598;28;20471;-71
2020/12/13 05:20:30;;;;;;;48.17;38.40;;;;;;;6.22;100.00;93175.75;5074206;28;20429;-73
2020/12/13 05:22:58;;;;;;;45.20;37.60;;;;;;;6.35;100.00;93176.88;5074207;28;20448;-71
2020/12/13 05:25:33;;;;;;;42.33;35.67;;;;;;;6.43;100.00;93189.56;5074211;28;20530;-72
2020/12/13 05:28:02;;;;;;;58.93;39.80;;;;;;;6.44;100.00;93187.81;5074558;28;20428;-72
2020/12/13 05:30:33;;;;;;;53.87;41.10;;;;;;;6.39;100.00;93173.00;5074347;28;20429;-73
2020/12/13 05:33:07;;;;;;;56.30;41.20;;;;;;;6.51;100.00;93192.06;5074452;28;20520;-72
2020/12/13 05:35:33;;;;;;;56.43;38.37;;;;;;;6.51;100.00;93186.94;5074179;28;20915;-72
2020/12/13 05:38:08;;;;;;;44.00;37.20;;;;;;;6.46;100.00;93178.22;5073954;28;20896;-72
2020/12/13 05:40:36;;;;;;;50.90;38.70;;;;;;;6.55;100.00;93181.47;5074499;28;20424;-72
2020/12/13 05:43:08;;;;;;;53.37;39.23;;;;;;;6.55;100.00;93178.91;5074232;28;20447;-72
2020/12/13 05:48:35;;;;;;;42.50;37.50;;;;;;;6.57;100.00;93180.31;5073537;28;20489;-73
2020/12/13 05:51:14;;;;;;;49.30;37.77;;;;;;;6.60;100.00;93186.84;5073765;28;20437;-72
2020/12/13 05:53:43;;;;;;;49.47;37.00;;;;;;;6.58;100.00;93192.16;5074003;28;20432;-72
2020/12/13 05:56:10;;;;;;;47.93;39.53;;;;;;;6.50;100.00;93184.56;5073622;28;20524;-72
2020/12/13 05:58:37;;;;;;;53.00;38.47;;;;;;;6.41;100.00;93169.31;5073459;28;20491;-73
2020/12/13 06:01:05;;;;;;;45.00;37.40;;;;;;;6.62;100.00;93182.34;5074053;28;20926;-72
2020/12/13 06:03:34;;;;;;;48.37;35.40;;;;;;;6.60;100.00;93181.72;5073579;28;20987;-72
2020/12/13 06:06:05;;;;;;;50.80;37.90;;;;;;;6.45;100.00;93179.97;5073669;28;20532;-74
2020/12/13 06:08:53;;;;;;;43.10;34.43;;;;;;;6.44;100.00;93183.50;5073434;28;20523;-73
2020/12/13 06:11:21;;;;;;;40.97;36.47;;;;;;;6.52;100.00;93182.59;5074109;28;20810;-72
2020/12/13 06:13:54;;;;;;;59.77;38.00;;;;;;;6.48;100.00;93171.94;5073509;28;20947;-72
2020/12/13 06:16:23;;;;;;;57.40;41.50;;;;;;;6.44;100.00;93173.28;5073247;28;20437;-72
2020/12/13 06:18:50;;;;;;;54.07;39.90;;;;;;;6.51;100.00;93183.59;5073452;28;20471;-72
2020/12/13 06:21:19;;;;;;;61.17;40.63;;;;;;;6.41;100.00;93191.53;5083682;28;20446;-71
2020/12/13 06:23:48;;;;;;;49.33;37.63;;;;;;;6.46;100.00;93194.34;5084253;28;20437;-71
2020/12/13 06:26:14;;;;;;;47.00;36.10;;;;;;;6.50;100.00;93195.59;5072400;28;20476;-72
2020/12/13 06:28:41;;;;;;;45.07;35.80;;;;;;;6.55;100.00;93201.94;5072628;28;20942;-71
2020/12/13 06:31:08;;;;;;;46.53;36.07;;;;;;;6.60;100.00;93191.97;5073142;28;20814;-72
2020/12/13 06:33:41;;;;;;;51.63;39.90;;;;;;;6.59;100.00;93188.59;5073087;28;20436;-72
2020/12/13 06:36:09;;;;;;;51.90;36.40;;;;;;;6.67;100.00;93186.94;5072490;28;20422;-72
2020/12/13 06:38:36;;;;;;;38.23;34.07;;;;;;;6.65;100.00;93184.56;5072538;28;21044;-72
2020/12/13 06:41:07;;;;;;;43.20;34.47;;;;;;;6.62;100.00;93187.47;5072550;28;20435;-71
2020/12/13 06:43:57;;;;;;;40.63;35.20;;;;;;;6.69;100.00;93187.53;5072868;28;20441;-74
2020/12/13 06:46:25;;;;;;;51.00;38.37;;;;;;;6.71;100.00;93177.94;5072670;28;20927;-73
2020/12/13 06:48:54;;;;;;;56.97;38.20;;;;;;;6.79;100.00;93179.59;5072817;28;20437;-73
2020/12/13 06:51:29;;;;;;;47.37;34.07;;;;;;;6.77;100.00;93179.75;5073156;28;20463;-73
2020/12/13 06:53:56;;;;;;;46.93;33.80;;;;;;;6.80;100.00;93183.75;5072900;28;20500;-73
2020/12/13 06:56:23;;;;;;;47.97;34.73;;;;;;;6.75;100.00;93179.16;5072256;28;20524;-73
2020/12/13 06:58:55;;;;;;;40.23;35.07;;;;;;;6.71;100.00;93180.47;5072315;28;20516;-73
2020/12/13 07:01:23;;;;;;;40.50;34.50;;;;;;;6.65;100.00;93192.25;5079767;28;21026;-74
2020/12/13 07:03:50;;;;;;;42.23;34.97;;;;;;;6.56;100.00;93183.06;5092476;28;20888;-73
2020/12/13 07:06:20;;;;;;;43.33;34.40;;;;;;;6.68;100.00;93196.97;5092181;28;20452;-73
2020/12/13 07:08:53;;;;;;;44.63;36.40;;;;;;;6.75;100.00;93194.50;5092299;28;20993;-72
2020/12/13 07:11:22;;;;;;;40.57;34.30;;;;;;;6.57;100.00;93199.97;5092270;28;20502;-73
2020/12/13 07:13:49;;;;;;;50.33;35.53;;;;;;;6.54;100.00;93196.03;5092200;28;20515;-72
2020/12/13 07:16:30;;;;;;;41.73;35.57;;;;;;;6.43;100.00;93204.16;5084263;28;20436;-73
2020/12/13 07:19:04;;;;;;;44.13;33.83;;;;;;;6.51;100.00;93202.31;5072219;28;20479;-73
2020/12/13 07:21:31;;;;;;;43.47;34.70;;;;;;;6.35;100.00;93205.00;5071983;28;20436;-73
2020/12/13 07:24:00;;;;;;;43.37;32.20;;;;;;;6.37;100.00;93223.53;5071901;28;20443;-72
2020/12/13 07:26:31;;;;;;;38.70;33.83;;;;;;;6.28;100.00;93218.50;5071633;28;20870;-73
2020/12/13 07:28:59;;;;;;;37.70;31.50;;;;;;;6.37;100.00;93220.97;5071999;28;20428;-73
2020/12/13 07:31:27;;;;;;;41.13;33.13;;;;;;;6.61;100.00;93234.47;5072163;28;20451;-72
2020/12/13 07:33:55;;;;;;;48.67;32.97;;;;;;;6.58;100.00;93235.63;5071825;28;20519;-76
2020/12/13 07:36:21;;;;;;;38.93;30.73;;;;;;;6.64;100.00;93234.94;5071988;28;20479;-72
2020/12/13 07:38:48;;;;;;;49.17;35.13;;;;;;;6.66;100.00;93237.31;5071812;28;20468;-71
2020/12/13 07:41:17;;;;;;;53.73;38.23;;;;;;;6.49;100.00;93249.47;5090469;28;20450;-70
2020/12/13 07:44:03;;;;;;;53.73;38.20;;;;;;;6.56;100.00;93255.50;5092108;28;20444;-73
2020/12/13 07:46:30;;;;;;;42.40;35.17;;;;;;;6.75;100.00;93266.94;5091900;28;20511;-74
2020/12/13 07:49:04;;;;;;;55.23;35.50;;;;;;;6.90;100.00;93273.81;5088972;28;20456;-74
2020/12/13 07:51:32;;;;;;;39.40;32.83;;;;;;;6.44;100.00;93264.53;5091406;28;20876;-74
2020/12/13 07:54:09;;;;;;;35.10;28.90;;;;;;;6.43;100.00;93278.31;5091660;28;20456;-74
2020/12/13 07:56:37;;;;;;;39.10;31.60;;;;;;;6.61;100.00;93283.88;5092023;28;20438;-73
2020/12/13 07:59:08;;;;;;;35.93;32.37;;;;;;;6.69;100.00;93289.88;5082390;28;21033;-74
2020/12/13 08:01:37;;;;;;;36.53;32.63;;;;;;;6.82;100.00;93289.28;5090760;28;20447;-73
2020/12/13 08:04:04;;;;;;;46.03;34.40;;;;;;;6.89;100.00;93281.69;5091492;28;20444;-74
2020/12/13 08:06:30;;;;;;;38.20;31.90;;;;;;;6.83;100.00;93289.09;5091355;28;20444;-74
2020/12/13 08:08:57;;;;;;;37.70;32.80;;;;;;;6.90;100.00;93286.63;5091564;28;20473;-74
2020/12/13 08:11:24;;;;;;;85.20;46.13;;;;;;;6.90;100.00;93285.84;5094983;28;20444;-71
2020/12/13 08:13:52;;;;;;;48.07;38.73;;;;;;;6.91;100.00;93290.78;5096164;28;20547;-74
2020/12/13 08:16:19;;;;;;;55.50;37.60;;;;;;;6.85;100.00;93287.16;5095467;28;20435;-73
2020/12/13 08:18:48;;;;;;;44.77;35.70;;;;;;;6.86;100.00;93290.50;5080353;28;20461;-74
2020/12/13 08:21:27;;;;;;;63.37;37.10;;;;;;;6.82;100.00;93281.59;5075525;28;20443;-74
2020/12/13 08:23:56;;;;;;;47.67;34.93;;;;;;;6.98;100.00;93295.97;5075643;28;20437;-73
2020/12/13 08:26:23;;;;;;;52.97;36.90;;;;;;;7.04;100.00;93282.47;5076253;28;20472;-71
2020/12/13 08:28:52;;;;;;;53.23;40.03;;;;;;;7.05;100.00;93273.81;5095550;28;20514;-72
2020/12/13 08:31:24;;;;;;;58.40;39.13;;;;;;;7.01;100.00;93276.91;5095192;28;20938;-76
2020/12/13 08:34:00;;;;;;;62.13;41.70;;;;;;;6.90;100.00;93281.50;5095195;28;20434;-74
2020/12/13 08:36:27;;;;;;;56.83;42.80;;;;;;;6.95;100.00;93263.84;5095039;28;20437;-73
2020/12/13 08:39:10;;;;;;;73.50;44.50;;;;;;;6.83;100.00;93265.28;5076474;28;20823;-73
2020/12/13 08:41:45;;;;;;;70.23;46.10;;;;;;;6.94;100.00;93267.41;5075221;28;20934;-74
2020/12/13 08:44:30;;;;;;;68.27;46.13;;;;;;;7.02;100.00;93269.06;5074476;28;20989;-75
2020/12/13 08:46:58;;;;;;;65.20;43.40;;;;;;;7.18;100.00;93280.06;5074916;28;20927;-74
2020/12/13 08:49:26;;;;;;;67.90;46.00;;;;;;;7.23;100.00;93275.22;5074561;28;20439;-74
2020/12/13 08:51:53;;;;;;;63.40;44.20;;;;;;;7.28;100.00;93288.25;5074417;28;20451;-75
2020/12/13 08:54:19;;;;;;;66.10;43.00;;;;;;;7.22;100.00;93286.41;5074724;28;20421;-74
2020/12/13 08:56:52;;;;;;;68.90;46.10;;;;;;;7.20;100.00;93286.59;5074702;28;20428;-73
2020/12/13 08:59:20;;;;;;;203.70;105.63;;;;;;;7.22;100.00;93289.78;5074221;28;20543;-75
2020/12/13 09:01:58;;;;;;;82.00;50.10;;;;;;;7.20;100.00;93284.03;5074179;28;20441;-75
2020/12/13 09:04:33;;;;;;;83.90;48.33;;;;;;;7.24;100.00;93292.16;5074381;28;20555;-74
2020/12/13 09:07:03;;;;;;;123.30;110.77;;;;;;;7.36;100.00;93279.69;5074325;28;20528;-75
2020/12/13 09:09:32;;;;;;;117.77;108.00;;;;;;;7.43;100.00;93282.31;5074484;28;20804;-75
2020/12/13 09:11:59;;;;;;;80.50;52.67;;;;;;;7.56;100.00;93284.22;5074303;28;20808;-75
2020/12/13 09:14:27;;;;;;;94.50;61.33;;;;;;;7.59;100.00;93281.31;5074506;28;20875;-74
2020/12/13 09:16:54;;;;;;;93.73;61.60;;;;;;;7.57;100.00;93278.13;5074661;28;20445;-74
2020/12/13 09:19:29;;;;;;;101.10;64.23;;;;;;;7.58;100.00;93273.78;5074210;28;20986;-74
2020/12/13 09:21:57;;;;;;;100.87;60.87;;;;;;;7.67;100.00;93262.44;5090539;28;20450;-74
2020/12/13 09:24:26;;;;;;;103.00;61.87;;;;;;;7.67;100.00;93259.88;5093792;28;20432;-73
2020/12/13 09:27:04;;;;;;;93.90;60.33;;;;;;;7.76;100.00;93258.00;5093329;28;20471;-75
2020/12/13 09:29:32;;;;;;;96.87;57.00;;;;;;;7.78;100.00;93256.03;5078149;28;20451;-73
2020/12/13 09:31:59;;;;;;;101.90;66.17;;;;;;;7.81;100.00;93239.50;5073503;28;20817;-73
2020/12/13 09:34:26;;;;;;;83.57;61.87;;;;;;;7.86;100.00;93242.31;5073487;28;20464;-72
2020/12/13 09:36:53;;;;;;;92.03;66.10;;;;;;;7.80;100.00;93243.84;5073947;28;20437;-74
2020/12/13 09:39:20;;;;;;;109.90;66.77;;;;;;;7.74;100.00;93240.25;5074391;28;20487;-74
2020/12/13 09:41:46;;;;;;;94.93;60.73;;;;;;;7.64;100.00;93240.53;5073811;28;20437;-73
2020/12/13 09:44:13;;;;;;;96.83;56.80;;;;;;;7.76;100.00;93237.50;5078827;28;20436;-73
2020/12/13 09:46:39;;;;;;;91.93;55.60;;;;;;;7.87;100.00;93231.06;5093578;28;20433;-73
2020/12/13 09:49:06;;;;;;;93.77;58.27;;;;;;;7.90;100.00;93230.72;5077782;28;20527;-73
2020/12/13 09:51:32;;;;;;;102.50;60.50;;;;;;;7.94;100.00;93226.81;5075975;28;22397;-74
2020/12/13 09:54:00;;;;;;;89.37;58.17;;;;;;;7.97;100.00;93225.66;5094244;28;20432;-75
2020/12/13 09:56:26;;;;;;;73.40;53.33;;;;;;;7.92;100.00;93222.84;5094910;28;20488;-75
2020/12/13 09:58:53;;;;;;;95.87;55.43;;;;;;;7.77;100.00;93211.66;5093814;28;20502;-74
2020/12/13 10:01:19;;;;;;;96.87;64.27;;;;;;;7.87;100.00;93213.94;5093470;28;20511;-74
2020/12/13 10:03:48;;;;;;;100.10;58.10;;;;;;;7.88;100.00;93204.47;5082642;28;20441;-75
2020/12/13 10:09:12;;;;;;;82.23;54.80;;;;;;;7.82;100.00;93200.88;5032640;28;20528;-76
2020/12/13 10:11:40;;;;;;;78.07;53.40;;;;;;;7.80;100.00;93187.44;5063028;28;20506;-77
2020/12/13 10:14:10;;;;;;;77.43;49.80;;;;;;;7.86;100.00;93191.06;5076066;28;20432;-77
2020/12/13 10:16:38;;;;;;;94.47;75.57;;;;;;;7.98;100.00;93189.56;5093712;28;20638;-78
2020/12/13 10:19:05;;;;;;;80.80;67.90;;;;;;;7.99;100.00;93190.34;5091891;28;20506;-77
2020/12/13 10:21:33;;;;;;;76.50;49.63;;;;;;;8.02;100.00;93182.28;5092767;28;20454;-78
2020/12/13 10:24:00;;;;;;;63.27;45.20;;;;;;;7.87;100.00;93198.56;5093752;28;20440;-76
2020/12/13 10:26:29;;;;;;;48.27;40.77;;;;;;;7.68;100.00;93194.84;5093013;28;20507;-83
2020/12/13 10:28:59;;;;;;;57.53;37.97;;;;;;;7.76;100.00;93194.72;5093469;28;20447;-78
2020/12/13 10:31:30;;;;;;;46.73;37.83;;;;;;;7.90;100.00;93190.50;5093488;28;20428;-75
2020/12/13 10:33:56;;;;;;;50.07;36.07;;;;;;;8.10;100.00;93196.75;5091908;28;20519;-74
2020/12/13 10:36:23;;;;;;;50.80;36.53;;;;;;;8.13;100.00;93188.69;5080812;28;20463;-75
2020/12/13 10:38:51;;;;;;;42.50;36.03;;;;;;;8.30;100.00;93193.50;5071886;28;20465;-76
2020/12/13 10:41:19;;;;;;;50.13;35.50;;;;;;;8.20;100.00;93186.16;5072390;28;20939;-76
2020/12/13 10:43:47;;;;;;;46.20;34.30;;;;;;;8.43;100.00;93188.47;5088827;28;20445;-77
2020/12/13 10:46:14;;;;;;;43.50;35.17;;;;;;;8.45;100.00;93189.06;5092291;28;20818;-75
2020/12/13 10:48:41;;;;;;;40.40;36.20;;;;;;;8.46;100.00;93182.16;5083153;28;20448;-74
2020/12/13 10:51:07;;;;;;;41.97;35.77;;;;;;;8.48;100.00;93175.88;5072026;28;20872;-75
2020/12/13 10:53:34;;;;;;;53.83;38.90;;;;;;;8.60;100.00;93172.78;5072476;28;20440;-75
2020/12/13 10:56:00;;;;;;;55.97;38.70;;;;;;;8.40;100.00;93176.00;5074540;28;20452;-77
2020/12/13 10:58:27;;;;;;;54.93;38.07;;;;;;;8.36;100.00;93174.78;5072356;28;20510;-78
2020/12/13 11:00:55;;;;;;;45.43;36.17;;;;;;;8.44;100.00;93177.22;5073198;28;20425;-76
2020/12/13 11:03:22;;;;;;;51.73;37.53;;;;;;;8.53;100.00;93166.81;5084011;28;20483;-76
2020/12/13 11:05:48;;;;;;;51.67;37.40;;;;;;;8.69;100.00;93170.84;5090197;28;20954;-77
2020/12/13 11:08:15;;;;;;;48.60;36.40;;;;;;;8.60;100.00;93144.56;5092225;28;20429;-77
2020/12/13 11:10:45;;;;;;;45.20;37.97;;;;;;;8.84;100.00;93169.91;5092912;28;20452;-79
2020/12/13 11:13:11;;;;;;;45.03;36.83;;;;;;;8.84;100.00;93170.72;5092162;28;20432;-77
2020/12/13 11:15:38;;;;;;;42.73;35.07;;;;;;;8.70;100.00;93162.16;5091748;28;20442;-77
2020/12/13 11:18:05;;;;;;;38.87;34.40;;;;;;;8.84;100.00;93167.34;5091829;28;20421;-75
2020/12/13 11:20:31;;;;;;;40.90;36.37;;;;;;;8.70;100.00;93150.13;5088401;28;20479;-77
2020/12/13 11:22:58;;;;;;;40.73;33.90;;;;;;;8.55;100.00;93159.72;5080467;28;20436;-76
2020/12/13 11:25:24;;;;;;;40.97;33.70;;;;;;;8.41;100.00;93159.63;5091091;28;20424;-75
2020/12/13 11:27:50;;;;;;;35.20;31.50;;;;;;;8.35;100.00;93155.28;5093577;28;20797;-76